Time;durP1;ratioP1;P1;durP2;ratioP2;P2;SDS_P1;SDS_P2;PMS_P1;PMS_P2;Temp;Humidity;BMP_temperature;BMP_pressure;BME280_temperature;BME280_humidity;BME280_pressure;Samples;Min_cycle;Max_cycle;Signal;HPM_P1;HPM_P2
2022/01/18 00:00:50;;;;;;;7.18;4.28;;;;;;;;;;5096925;28;20039;-75
2022/01/18 00:03:16;;;;;;;7.30;5.18;;;;;;;;;;5096756;28;20118;-75
2022/01/18 00:05:44;;;;;;;6.03;4.45;;;;;;;;;;5097163;28;20126;-75
2022/01/18 00:08:11;;;;;;;5.95;3.92;;;;;;;;;;5097076;28;20036;-76
2022/01/18 00:10:37;;;;;;;7.00;4.65;;;;;;;;;;5097201;28;20110;-76
2022/01/18 00:15:55;;;;;;;6.15;4.65;;;;;;;;;;5097202;28;20126;-75
2022/01/18 00:18:21;;;;;;;;;;;;;;;;;;5096941;28;20063;-75
2022/01/18 00:23:18;;;;;;;4.97;3.95;;;;;;;;;;5096914;28;20032;-76
2022/01/18 00:25:48;;;;;;;9.93;4.95;;;;;;;;;;5096585;28;20074;-76
2022/01/18 00:28:14;;;;;;;41.70;27.58;;;;;;;;;;5097306;28;20086;-76
2022/01/18 00:35:44;;;;;;;7.18;4.25;;;;;;;;;;5096517;28;20048;-76
2022/01/18 00:38:29;;;;;;;13.25;9.82;;;;;;;;;;5096831;28;20032;-76
2022/01/18 00:40:56;;;;;;;7.90;4.82;;;;;;;;;;5096792;28;20111;-76
2022/01/18 00:43:22;;;;;;;6.82;4.40;;;;;;;;;;5097220;28;20375;-76
2022/01/18 00:45:48;;;;;;;8.43;4.40;;;;;;;;;;5096645;28;20043;-76
2022/01/18 00:48:14;;;;;;;9.77;7.25;;;;;;;;;;5096468;28;20093;-75
2022/01/18 00:50:41;;;;;;;6.78;4.70;;;;;;;;;;5096732;28;20040;-76
2022/01/18 00:53:11;;;;;;;7.65;5.13;;;;;;;;;;5096572;28;20039;-76
2022/01/18 00:55:48;;;;;;;7.35;4.70;;;;;;;;;;5096486;28;20044;-75
2022/01/18 00:58:15;;;;;;;11.43;5.60;;;;;;;;;;5096378;28;20064;-76
2022/01/18 01:00:41;;;;;;;6.97;4.97;;;;;;;;;;5095954;28;20486;-76
2022/01/18 01:03:07;;;;;;;7.95;4.78;;;;;;;;;;5095871;28;20032;-76
2022/01/18 01:05:34;;;;;;;6.35;4.55;;;;;;;;;;5096023;28;20040;-76
2022/01/18 01:08:01;;;;;;;5.75;4.85;;;;;;;;;;5096907;28;20038;-76
2022/01/18 01:10:27;;;;;;;7.07;4.88;;;;;;;;;;5096115;28;20493;-76
2022/01/18 01:12:54;;;;;;;7.35;5.07;;;;;;;;;;5096276;28;20475;-76
2022/01/18 01:15:22;;;;;;;8.48;5.28;;;;;;;;;;5096248;28;20051;-76
2022/01/18 01:18:11;;;;;;;9.23;5.35;;;;;;;;;;5096358;28;20047;-76
2022/01/18 01:37:15;;;;;;;10.00;5.97;;;;;;;;;;5095462;28;20036;-76
2022/01/18 01:45:01;;;;;;;6.13;4.90;;;;;;;;;;5095316;28;20046;-76
2022/01/18 01:47:35;;;;;;;7.40;5.35;;;;;;;;;;5095451;28;20040;-76
2022/01/18 01:50:01;;;;;;;7.72;4.95;;;;;;;;;;5095312;28;20036;-75
2022/01/18 01:52:28;;;;;;;8.57;5.45;;;;;;;;;;5095165;28;20066;-76
2022/01/18 01:54:54;;;;;;;6.68;4.93;;;;;;;;;;5095373;28;20043;-76
2022/01/18 01:57:21;;;;;;;8.93;5.38;;;;;;;;;;5095774;28;20085;-76
2022/01/18 01:59:47;;;;;;;9.77;5.90;;;;;;;;;;5095420;28;20040;-75
2022/01/18 02:02:14;;;;;;;8.27;5.50;;;;;;;;;;5095571;28;20085;-76
2022/01/18 02:04:40;;;;;;;7.15;4.43;;;;;;;;;;5094836;28;20039;-75
2022/01/18 02:07:07;;;;;;;6.00;4.10;;;;;;;;;;5095252;28;20036;-75
2022/01/18 02:09:33;;;;;;;9.43;5.68;;;;;;;;;;5095599;28;20043;-75
2022/01/18 02:12:00;;;;;;;7.60;5.22;;;;;;;;;;5094905;28;20062;-76
2022/01/18 02:14:28;;;;;;;9.82;6.53;;;;;;;;;;5095024;28;20127;-76
2022/01/18 02:22:25;;;;;;;8.27;6.32;;;;;;;;;;5095140;28;20190;-75
2022/01/18 02:24:51;;;;;;;8.27;4.80;;;;;;;;;;5094708;28;20070;-76
2022/01/18 02:27:17;;;;;;;7.95;5.22;;;;;;;;;;5095010;28;20034;-76
2022/01/18 02:29:43;;;;;;;10.10;5.75;;;;;;;;;;5095161;28;20085;-76
2022/01/18 02:32:10;;;;;;;8.48;5.25;;;;;;;;;;5094903;28;20047;-76
2022/01/18 02:34:36;;;;;;;7.30;5.22;;;;;;;;;;5094680;28;20044;-75
2022/01/18 02:37:04;;;;;;;8.70;5.57;;;;;;;;;;5094992;28;20043;-75
2022/01/18 02:39:30;;;;;;;10.85;5.00;;;;;;;;;;5094560;28;20032;-75
2022/01/18 02:41:56;;;;;;;10.93;6.65;;;;;;;;;;5095389;28;20036;-76
2022/01/18 02:44:23;;;;;;;7.38;5.40;;;;;;;;;;5094839;28;20063;-75
2022/01/18 02:46:49;;;;;;;8.23;5.43;;;;;;;;;;5094848;28;20122;-76
2022/01/18 02:49:15;;;;;;;7.07;5.32;;;;;;;;;;5098495;28;20420;-75
2022/01/18 02:51:42;;;;;;;8.10;5.70;;;;;;;;;;5098917;28;20040;-76
2022/01/18 02:54:10;;;;;;;9.88;6.05;;;;;;;;;;5098548;28;20585;-76
2022/01/18 02:56:41;;;;;;;7.88;4.90;;;;;;;;;;5098696;28;20040;-76
2022/01/18 02:59:23;;;;;;;9.52;5.47;;;;;;;;;;5098875;28;20071;-75
2022/01/18 03:04:39;;;;;;;8.63;4.68;;;;;;;;;;5098169;28;20103;-76
2022/01/18 03:07:05;;;;;;;6.60;4.90;;;;;;;;;;5099204;28;20467;-76
2022/01/18 03:09:31;;;;;;;6.43;5.13;;;;;;;;;;5098779;28;20068;-76
2022/01/18 03:11:57;;;;;;;6.50;5.00;;;;;;;;;;5098240;28;20043;-76
2022/01/18 03:14:24;;;;;;;7.63;5.50;;;;;;;;;;5098028;28;20056;-76
2022/01/18 03:16:50;;;;;;;8.23;5.47;;;;;;;;;;5098072;28;20113;-76
2022/01/18 03:19:17;;;;;;;7.13;4.90;;;;;;;;;;5097816;28;20044;-75
2022/01/18 03:21:44;;;;;;;8.85;5.90;;;;;;;;;;5097998;28;20101;-75
2022/01/18 03:24:21;;;;;;;7.15;4.90;;;;;;;;;;5097836;28;20489;-76
2022/01/18 03:29:34;;;;;;;7.78;5.75;;;;;;;;;;5085961;28;20065;-76
2022/01/18 03:32:00;;;;;;;11.15;5.97;;;;;;;;;;5097576;28;20095;-76
2022/01/18 03:34:26;;;;;;;7.15;5.70;;;;;;;;;;5097369;28;20481;-76
2022/01/18 03:36:53;;;;;;;12.80;5.55;;;;;;;;;;5097705;28;20048;-76
2022/01/18 03:39:20;;;;;;;7.70;5.18;;;;;;;;;;5098177;28;20036;-76
2022/01/18 03:41:52;;;;;;;7.60;5.57;;;;;;;;;;5097604;28;20043;-76
2022/01/18 03:44:19;;;;;;;7.55;5.65;;;;;;;;;;5097912;28;20491;-76
2022/01/18 03:46:45;;;;;;;9.32;5.68;;;;;;;;;;5097571;28;20057;-75
2022/01/18 03:49:11;;;;;;;6.57;4.70;;;;;;;;;;5097540;28;20083;-76
2022/01/18 03:51:38;;;;;;;8.85;5.50;;;;;;;;;;5097208;28;20250;-76
2022/01/18 03:54:04;;;;;;;9.63;6.03;;;;;;;;;;5097381;28;20040;-76
2022/01/18 03:56:31;;;;;;;9.23;6.03;;;;;;;;;;5097050;28;20046;-76
2022/01/18 03:58:57;;;;;;;10.55;6.57;;;;;;;;;;5096703;28;20139;-76
2022/01/18 04:01:23;;;;;;;8.98;5.57;;;;;;;;;;5096991;28;20447;-77
2022/01/18 04:03:49;;;;;;;11.90;5.90;;;;;;;;;;5096761;28;20472;-76
2022/01/18 04:06:15;;;;;;;8.05;5.85;;;;;;;;;;5096880;28;20088;-75
2022/01/18 04:08:41;;;;;;;10.50;6.00;;;;;;;;;;5097373;28;20040;-76
2022/01/18 04:11:07;;;;;;;9.43;6.68;;;;;;;;;;5097096;28;20043;-76
2022/01/18 04:13:33;;;;;;;9.65;6.35;;;;;;;;;;5096770;28;20051;-75
2022/01/18 04:16:00;;;;;;;18.80;10.68;;;;;;;;;;5112120;28;20067;-75
2022/01/18 04:18:44;;;;;;;20.73;10.80;;;;;;;;;;5096540;28;20039;-76
2022/01/18 04:29:09;;;;;;;19.92;11.60;;;;;;;;;;5097180;28;20432;-76
2022/01/18 04:31:35;;;;;;;17.40;11.23;;;;;;;;;;5096650;28;20032;-76
2022/01/18 04:34:01;;;;;;;17.08;11.45;;;;;;;;;;5096288;28;20119;-75
2022/01/18 04:36:28;;;;;;;22.08;11.38;;;;;;;;;;5096300;28;20071;-75
2022/01/18 04:38:54;;;;;;;19.15;11.25;;;;;;;;;;5096515;28;20097;-75
2022/01/18 04:41:27;;;;;;;18.30;11.02;;;;;;;;;;5096540;28;20032;-76
2022/01/18 04:44:12;;;;;;;16.98;10.77;;;;;;;;;;5096664;28;20115;-75
2022/01/18 04:49:23;;;;;;;17.15;11.23;;;;;;;;;;5095684;28;20057;-76
2022/01/18 04:51:49;;;;;;;18.17;11.30;;;;;;;;;;5096337;28;20032;-76
2022/01/18 04:54:16;;;;;;;16.80;10.50;;;;;;;;;;5095982;28;20348;-75
2022/01/18 04:59:10;;;;;;;16.67;10.13;;;;;;;;;;5087303;28;20388;-76
2022/01/18 05:01:37;;;;;;;17.08;10.38;;;;;;;;;;5080573;28;20123;-76
2022/01/18 05:04:03;;;;;;;14.65;9.55;;;;;;;;;;5073418;28;20036;-76
2022/01/18 05:06:29;;;;;;;18.02;10.27;;;;;;;;;;5065731;28;20036;-76
2022/01/18 05:08:56;;;;;;;18.02;10.88;;;;;;;;;;5056197;28;20036;-76
2022/01/18 05:11:25;;;;;;;17.92;12.13;;;;;;;;;;5059463;28;20060;-76
2022/01/18 05:16:43;;;;;;;22.30;14.55;;;;;;;;;;5075121;28;20555;-76
2022/01/18 05:19:25;;;;;;;23.38;13.60;;;;;;;;;;5093359;28;20039;-76
2022/01/18 05:24:20;;;;;;;14.68;10.10;;;;;;;;;;5074297;28;20513;-76
2022/01/18 05:26:47;;;;;;;18.70;11.88;;;;;;;;;;5088658;28;20471;-77
2022/01/18 05:29:13;;;;;;;13.43;9.05;;;;;;;;;;5080346;28;20043;-76
2022/01/18 05:31:39;;;;;;;16.15;9.55;;;;;;;;;;5084381;28;20040;-77
2022/01/18 05:34:05;;;;;;;11.18;7.82;;;;;;;;;;5094682;28;20055;-73
2022/01/18 05:36:31;;;;;;;14.70;9.23;;;;;;;;;;5090662;28;20506;-74
2022/01/18 05:38:57;;;;;;;12.35;7.18;;;;;;;;;;5085519;28;20084;-75
2022/01/18 05:41:24;;;;;;;12.07;7.35;;;;;;;;;;5094367;28;20379;-75
2022/01/18 05:43:50;;;;;;;12.70;7.60;;;;;;;;;;5094599;28;20121;-74
2022/01/18 05:46:16;;;;;;;13.25;8.90;;;;;;;;;;5095185;28;20098;-75
2022/01/18 05:48:42;;;;;;;12.15;8.50;;;;;;;;;;5094961;28;20063;-74
2022/01/18 05:51:08;;;;;;;13.98;8.13;;;;;;;;;;5095493;28;20120;-74
2022/01/18 05:53:35;;;;;;;13.23;7.32;;;;;;;;;;5095407;28;20066;-75
2022/01/18 05:56:02;;;;;;;11.90;6.72;;;;;;;;;;5095303;28;20036;-74
2022/01/18 05:58:28;;;;;;;13.02;7.90;;;;;;;;;;5095342;28;20487;-74
2022/01/18 06:00:55;;;;;;;11.30;7.43;;;;;;;;;;5096017;28;20032;-75
2022/01/18 06:03:31;;;;;;;11.85;7.80;;;;;;;;;;5095169;28;20032;-75
2022/01/18 06:08:43;;;;;;;11.63;7.85;;;;;;;;;;5094748;28;20081;-75
2022/01/18 06:11:09;;;;;;;15.55;8.93;;;;;;;;;;5095260;28;20061;-74
2022/01/18 06:13:35;;;;;;;17.08;10.75;;;;;;;;;;5094620;28;20103;-74
2022/01/18 06:16:02;;;;;;;14.75;9.40;;;;;;;;;;5095011;28;20048;-75
2022/01/18 06:18:28;;;;;;;12.20;8.63;;;;;;;;;;5094402;28;20079;-75
2022/01/18 06:20:54;;;;;;;13.68;9.30;;;;;;;;;;5095119;28;20498;-75
2022/01/18 06:23:21;;;;;;;14.40;9.18;;;;;;;;;;5094051;28;20467;-75
2022/01/18 06:25:47;;;;;;;18.05;10.65;;;;;;;;;;5094709;28;20040;-75
2022/01/18 06:28:13;;;;;;;18.05;10.82;;;;;;;;;;5094730;28;20039;-75
2022/01/18 06:30:39;;;;;;;19.50;11.73;;;;;;;;;;5095310;28;20044;-75
2022/01/18 06:33:05;;;;;;;20.40;12.23;;;;;;;;;;5094562;28;20047;-75
2022/01/18 06:35:32;;;;;;;15.70;9.80;;;;;;;;;;5094289;28;20047;-75
2022/01/18 06:37:58;;;;;;;17.50;12.32;;;;;;;;;;5094662;28;20486;-74
2022/01/18 06:40:25;;;;;;;20.42;12.65;;;;;;;;;;5094813;28;20197;-74
2022/01/18 06:42:52;;;;;;;16.27;10.98;;;;;;;;;;5094208;28;20032;-74
2022/01/18 06:45:18;;;;;;;21.27;10.20;;;;;;;;;;5094308;28;20097;-75
2022/01/18 06:47:45;;;;;;;15.55;10.88;;;;;;;;;;5094275;28;20506;-75
2022/01/18 06:50:12;;;;;;;15.85;10.60;;;;;;;;;;5093722;28;20028;-74
2022/01/18 06:52:41;;;;;;;15.13;9.77;;;;;;;;;;5094513;28;20063;-74
2022/01/18 06:55:08;;;;;;;16.80;10.57;;;;;;;;;;5094116;28;20040;-74
2022/01/18 06:57:35;;;;;;;14.75;9.70;;;;;;;;;;5094110;28;20077;-74
2022/01/18 07:00:01;;;;;;;17.83;10.77;;;;;;;;;;5095022;28;20073;-75
2022/01/18 07:02:27;;;;;;;20.33;11.45;;;;;;;;;;5094421;28;20052;-75
2022/01/18 07:04:54;;;;;;;22.10;13.60;;;;;;;;;;5094219;28;20044;-74
2022/01/18 07:07:20;;;;;;;19.58;12.25;;;;;;;;;;5094618;28;20044;-74
2022/01/18 07:09:46;;;;;;;15.75;9.90;;;;;;;;;;5094697;28;20126;-73
2022/01/18 07:12:13;;;;;;;17.30;10.48;;;;;;;;;;5094252;28;20161;-74
2022/01/18 07:14:40;;;;;;;18.67;11.88;;;;;;;;;;5094358;28;20072;-73
2022/01/18 07:17:07;;;;;;;16.60;10.88;;;;;;;;;;5094324;28;20046;-74
2022/01/18 07:19:33;;;;;;;18.00;11.55;;;;;;;;;;5093454;28;20074;-73
2022/01/18 07:22:00;;;;;;;19.88;11.43;;;;;;;;;;5093659;28;20039;-74
2022/01/18 07:24:38;;;;;;;17.60;11.63;;;;;;;;;;5093050;28;20055;-73
2022/01/18 07:27:05;;;;;;;18.83;11.63;;;;;;;;;;5092577;28;20028;-73
2022/01/18 07:29:31;;;;;;;23.33;12.48;;;;;;;;;;5075247;28;20028;-73
2022/01/18 07:31:57;;;;;;;20.83;12.45;;;;;;;;;;5071550;28;20418;-74
2022/01/18 07:34:23;;;;;;;20.35;12.90;;;;;;;;;;5073397;28;20021;-73
2022/01/18 07:36:49;;;;;;;19.23;12.43;;;;;;;;;;5076408;28;20032;-73
2022/01/18 07:39:16;;;;;;;31.98;16.73;;;;;;;;;;5076702;28;20040;-73
2022/01/18 07:41:42;;;;;;;26.73;16.60;;;;;;;;;;5076299;28;20034;-73
2022/01/18 07:44:08;;;;;;;22.80;14.40;;;;;;;;;;5076856;28;20083;-74
2022/01/18 07:46:34;;;;;;;21.10;13.10;;;;;;;;;;5077197;28;20040;-73
2022/01/18 07:49:00;;;;;;;21.58;14.10;;;;;;;;;;5076797;28;20028;-73
2022/01/18 07:51:26;;;;;;;25.98;15.20;;;;;;;;;;5077129;28;20085;-73
2022/01/18 07:53:52;;;;;;;25.58;16.77;;;;;;;;;;5077147;28;20115;-73
2022/01/18 07:56:18;;;;;;;24.33;16.02;;;;;;;;;;5076660;28;20145;-73
2022/01/18 07:58:45;;;;;;;25.52;15.25;;;;;;;;;;5077015;28;20493;-74
2022/01/18 08:01:11;;;;;;;27.48;16.13;;;;;;;;;;5076596;28;20035;-73
2022/01/18 08:03:37;;;;;;;25.70;16.08;;;;;;;;;;5076535;28;20032;-72
2022/01/18 08:06:03;;;;;;;22.55;14.65;;;;;;;;;;5057779;28;20039;-71
2022/01/18 08:08:29;;;;;;;23.75;15.00;;;;;;;;;;5068699;28;20032;-72
2022/01/18 08:10:55;;;;;;;25.23;15.65;;;;;;;;;;5076074;28;20029;-72
2022/01/18 08:13:34;;;;;;;23.25;15.15;;;;;;;;;;5074222;28;20052;-72
2022/01/18 08:16:21;;;;;;;21.77;15.10;;;;;;;;;;5075358;28;20119;-72
2022/01/18 08:18:46;;;;;;;25.88;14.80;;;;;;;;;;5075338;28;20507;-71
2022/01/18 08:21:12;;;;;;;26.95;17.55;;;;;;;;;;5074419;28;20045;-71
2022/01/18 08:23:38;;;;;;;30.90;17.98;;;;;;;;;;5075363;28;20033;-71
2022/01/18 08:26:04;;;;;;;27.73;18.35;;;;;;;;;;5074673;28;20040;-71
2022/01/18 08:28:30;;;;;;;24.88;17.00;;;;;;;;;;5075237;28;20060;-71
2022/01/18 08:30:56;;;;;;;27.35;17.88;;;;;;;;;;5074058;28;20037;-71
2022/01/18 08:33:24;;;;;;;28.80;17.90;;;;;;;;;;5074279;28;20063;-71
2022/01/18 08:35:50;;;;;;;27.98;16.85;;;;;;;;;;5074635;28;20040;-71
2022/01/18 08:38:16;;;;;;;36.95;22.27;;;;;;;;;;5074698;28;20103;-71
2022/01/18 08:40:42;;;;;;;34.92;20.60;;;;;;;;;;5075489;28;20113;-71
2022/01/18 08:43:08;;;;;;;28.92;19.02;;;;;;;;;;5075223;28;20141;-71
2022/01/18 08:45:35;;;;;;;28.48;18.92;;;;;;;;;;5073159;28;20040;-71
2022/01/18 08:48:01;;;;;;;33.33;20.60;;;;;;;;;;5074741;28;20138;-71
2022/01/18 08:50:28;;;;;;;34.13;22.95;;;;;;;;;;5073321;28;20037;-71
2022/01/18 08:52:54;;;;;;;28.48;19.88;;;;;;;;;;5074659;28;20119;-71
2022/01/18 08:55:21;;;;;;;32.47;20.38;;;;;;;;;;5074940;28;20068;-71
2022/01/18 08:57:47;;;;;;;34.05;21.10;;;;;;;;;;5074406;28;20039;-71
2022/01/18 09:00:15;;;;;;;33.38;21.58;;;;;;;;;;5073343;28;20032;-72
2022/01/18 09:02:41;;;;;;;29.20;19.75;;;;;;;;;;5074664;28;20120;-72
2022/01/18 09:05:08;;;;;;;28.17;17.50;;;;;;;;;;5065051;28;20044;-72
2022/01/18 09:07:36;;;;;;;27.58;18.30;;;;;;;;;;5092562;28;20043;-72
2022/01/18 09:10:06;;;;;;;22.83;15.23;;;;;;;;;;5094884;28;20047;-72
2022/01/18 09:12:33;;;;;;;22.07;14.17;;;;;;;;;;5094491;28;20032;-71
2022/01/18 09:15:04;;;;;;;23.77;15.20;;;;;;;;;;5094644;28;20107;-72
2022/01/18 09:17:30;;;;;;;21.20;14.00;;;;;;;;;;5094953;28;20046;-72
2022/01/18 09:19:58;;;;;;;22.73;14.65;;;;;;;;;;5095254;28;20107;-72
2022/01/18 09:22:24;;;;;;;21.75;14.30;;;;;;;;;;5094335;28;20043;-71
2022/01/18 09:24:50;;;;;;;19.50;13.45;;;;;;;;;;5093793;28;20084;-71
2022/01/18 09:27:17;;;;;;;21.10;14.00;;;;;;;;;;5094806;28;20612;-71
2022/01/18 09:29:43;;;;;;;22.40;15.10;;;;;;;;;;5095494;28;20043;-71
2022/01/18 09:32:09;;;;;;;22.95;13.82;;;;;;;;;;5095457;28;20220;-71
2022/01/18 09:34:35;;;;;;;21.02;15.52;;;;;;;;;;5093581;28;20036;-71
2022/01/18 09:37:02;;;;;;;24.27;16.17;;;;;;;;;;5092678;28;20395;-71
2022/01/18 09:39:28;;;;;;;22.23;15.38;;;;;;;;;;5095102;28;20116;-71
2022/01/18 09:41:57;;;;;;;21.05;14.65;;;;;;;;;;5095683;28;20028;-72
2022/01/18 09:44:23;;;;;;;23.95;16.23;;;;;;;;;;5095134;28;20115;-72
2022/01/18 09:46:50;;;;;;;24.08;15.93;;;;;;;;;;5095147;28;20123;-71
2022/01/18 09:49:17;;;;;;;17.42;12.70;;;;;;;;;;5094779;28;20069;-71
2022/01/18 09:51:43;;;;;;;22.00;15.73;;;;;;;;;;5095164;28;20035;-71
2022/01/18 09:54:09;;;;;;;45.00;27.90;;;;;;;;;;5095579;28;20566;-71
2022/01/18 09:56:36;;;;;;;32.53;20.55;;;;;;;;;;5093904;28;20042;-71
2022/01/18 09:59:02;;;;;;;18.95;13.00;;;;;;;;;;5094926;28;20044;-71
2022/01/18 10:01:29;;;;;;;16.60;11.60;;;;;;;;;;5094971;28;20039;-71
2022/01/18 10:04:17;;;;;;;15.63;11.30;;;;;;;;;;5094551;28;20075;-71
2022/01/18 10:06:44;;;;;;;13.00;9.77;;;;;;;;;;5094583;28;20031;-72
2022/01/18 10:09:11;;;;;;;14.15;9.55;;;;;;;;;;5094721;28;20097;-72
2022/01/18 10:11:37;;;;;;;15.25;10.38;;;;;;;;;;5094836;28;20024;-72
2022/01/18 10:14:03;;;;;;;13.40;9.63;;;;;;;;;;5094297;28;20051;-72
2022/01/18 10:16:31;;;;;;;11.98;9.15;;;;;;;;;;5094046;28;20108;-70
2022/01/18 10:19:03;;;;;;;13.10;8.98;;;;;;;;;;5094391;28;20040;-72
2022/01/18 10:21:34;;;;;;;14.02;8.73;;;;;;;;;;5094019;28;20044;-74
2022/01/18 10:24:30;;;;;;;14.60;9.70;;;;;;;;;;5094589;28;20148;-72
2022/01/18 10:26:57;;;;;;;14.38;8.63;;;;;;;;;;5085036;28;20071;-73
2022/01/18 10:29:35;;;;;;;12.32;8.10;;;;;;;;;;5094848;28;20054;-73
2022/01/18 10:32:12;;;;;;;12.27;8.20;;;;;;;;;;5094304;28;20028;-72
2022/01/18 10:37:08;;;;;;;12.23;7.82;;;;;;;;;;5076370;28;20507;-73
2022/01/18 10:39:38;;;;;;;14.60;8.25;;;;;;;;;;5089923;28;20028;-73
2022/01/18 10:42:16;;;;;;;11.15;8.18;;;;;;;;;;5093994;28;20111;-74
2022/01/18 10:44:45;;;;;;;13.40;8.00;;;;;;;;;;5094466;28;20069;-73
2022/01/18 10:47:11;;;;;;;12.32;8.25;;;;;;;;;;5094454;28;20039;-73
2022/01/18 10:49:43;;;;;;;13.38;8.07;;;;;;;;;;5094238;28;20499;-73
2022/01/18 10:52:11;;;;;;;23.70;14.85;;;;;;;;;;5094194;28;20048;-73
2022/01/18 10:54:39;;;;;;;12.35;8.13;;;;;;;;;;5094393;28;20029;-73
2022/01/18 10:57:06;;;;;;;14.23;8.30;;;;;;;;;;5094301;28;20040;-73
2022/01/18 10:59:33;;;;;;;13.30;8.20;;;;;;;;;;5094098;28;20046;-73
2022/01/18 11:02:05;;;;;;;13.38;9.27;;;;;;;;;;5094387;28;20121;-74
2022/01/18 11:04:31;;;;;;;10.75;7.28;;;;;;;;;;5093929;28;20115;-73
2022/01/18 11:06:59;;;;;;;13.18;8.73;;;;;;;;;;5093442;28;20044;-73
2022/01/18 11:09:25;;;;;;;11.57;8.07;;;;;;;;;;5095195;28;20089;-73
2022/01/18 11:11:51;;;;;;;11.02;7.75;;;;;;;;;;5080376;28;20072;-73
2022/01/18 11:14:20;;;;;;;16.95;11.48;;;;;;;;;;5054339;28;20160;-73
2022/01/18 11:16:48;;;;;;;13.10;8.55;;;;;;;;;;5057142;28;20484;-73
2022/01/18 11:21:50;;;;;;;10.07;7.60;;;;;;;;;;5057089;28;20036;-73
2022/01/18 11:24:17;;;;;;;14.30;8.73;;;;;;;;;;5055928;28;20123;-73
2022/01/18 11:26:45;;;;;;;11.40;7.50;;;;;;;;;;5056037;28;20037;-73
2022/01/18 11:29:12;;;;;;;12.95;8.48;;;;;;;;;;5056456;28;20067;-72
2022/01/18 11:31:38;;;;;;;11.85;7.88;;;;;;;;;;5057342;28;20037;-73
2022/01/18 11:34:06;;;;;;;8.93;6.28;;;;;;;;;;5058445;28;20151;-73
2022/01/18 11:36:35;;;;;;;29.88;22.88;;;;;;;;;;5074798;28;20127;-73
2022/01/18 11:39:03;;;;;;;35.00;23.67;;;;;;;;;;5075411;28;20072;-72
2022/01/18 11:41:35;;;;;;;18.88;13.13;;;;;;;;;;5076019;28;20032;-73
2022/01/18 11:44:18;;;;;;;8.75;5.95;;;;;;;;;;5076958;28;20032;-73
2022/01/18 11:46:52;;;;;;;7.15;4.85;;;;;;;;;;5076168;28;20040;-74
2022/01/18 11:49:19;;;;;;;7.15;4.60;;;;;;;;;;5076980;28;20037;-73
2022/01/18 11:51:50;;;;;;;7.25;5.28;;;;;;;;;;5075933;28;20059;-73
2022/01/18 11:54:42;;;;;;;11.57;8.32;;;;;;;;;;5077227;28;20058;-72
2022/01/18 11:57:23;;;;;;;19.42;11.82;;;;;;;;;;5076568;28;20537;-72
2022/01/18 11:59:52;;;;;;;32.10;22.23;;;;;;;;;;5096074;28;20064;-72
2022/01/18 12:02:40;;;;;;;5.97;4.45;;;;;;;;;;5095427;28;20039;-72
2022/01/18 12:05:19;;;;;;;26.38;20.10;;;;;;;;;;5096461;28;20028;-73
2022/01/18 12:07:47;;;;;;;7.53;4.82;;;;;;;;;;5096786;28;20108;-72
2022/01/18 12:10:33;;;;;;;14.85;9.70;;;;;;;;;;5095957;28;20040;-72
2022/01/18 12:12:59;;;;;;;16.58;8.68;;;;;;;;;;5096930;28;20494;-72
2022/01/18 12:15:26;;;;;;;10.57;6.22;;;;;;;;;;5096041;28;20048;-72
2022/01/18 12:17:55;;;;;;;7.75;4.85;;;;;;;;;;5093819;28;20030;-72
2022/01/18 12:20:44;;;;;;;9.60;4.53;;;;;;;;;;5095051;28;20040;-72
2022/01/18 12:23:10;;;;;;;3.85;2.88;;;;;;;;;;5096263;28;20032;-72
2022/01/18 12:25:37;;;;;;;11.73;5.15;;;;;;;;;;5094472;28;20038;-72
2022/01/18 12:28:32;;;;;;;6.35;3.67;;;;;;;;;;5095078;28;20566;-71
2022/01/18 12:31:06;;;;;;;7.93;4.45;;;;;;;;;;5091585;28;20077;-71
2022/01/18 12:33:45;;;;;;;5.00;3.72;;;;;;;;;;5094036;28;20036;-71
2022/01/18 12:36:31;;;;;;;6.75;4.00;;;;;;;;;;5095375;28;20073;-72
2022/01/18 12:38:59;;;;;;;14.93;7.03;;;;;;;;;;5095072;28;20118;-72
2022/01/18 12:41:41;;;;;;;8.57;4.75;;;;;;;;;;5095671;28;20062;-72
2022/01/18 12:44:22;;;;;;;9.15;4.60;;;;;;;;;;5094114;28;20093;-72
2022/01/18 12:46:56;;;;;;;11.80;6.70;;;;;;;;;;5093531;28;20498;-72
2022/01/18 12:49:22;;;;;;;7.40;3.72;;;;;;;;;;5094949;28;20040;-72
2022/01/18 12:51:58;;;;;;;5.65;3.72;;;;;;;;;;5094814;28;20036;-72
2022/01/18 12:54:38;;;;;;;9.02;5.00;;;;;;;;;;5095643;28;20067;-71
2022/01/18 12:57:15;;;;;;;13.52;6.80;;;;;;;;;;5094690;28;20105;-71
2022/01/18 13:00:00;;;;;;;9.77;4.90;;;;;;;;;;5095286;28;20070;-71
2022/01/18 13:02:26;;;;;;;6.55;4.10;;;;;;;;;;5095031;28;20136;-72
2022/01/18 13:05:10;;;;;;;11.38;5.82;;;;;;;;;;5094404;28;20039;-71
2022/01/18 13:07:49;;;;;;;6.03;4.00;;;;;;;;;;5095550;28;20036;-72
2022/01/18 13:10:15;;;;;;;6.45;3.38;;;;;;;;;;5095135;28;20067;-72
2022/01/18 13:12:43;;;;;;;5.63;3.38;;;;;;;;;;5094825;28;20055;-72
2022/01/18 13:15:13;;;;;;;6.40;3.55;;;;;;;;;;5095590;28;20054;-72
2022/01/18 13:23:25;;;;;;;5.80;3.45;;;;;;;;;;5095159;28;20169;-72
2022/01/18 13:25:55;;;;;;;6.85;3.60;;;;;;;;;;5094161;28;20039;-72
2022/01/18 13:28:34;;;;;;;7.47;3.33;;;;;;;;;;5095494;28;20036;-72
2022/01/18 13:31:14;;;;;;;7.57;4.22;;;;;;;;;;5094445;28;20486;-72
2022/01/18 13:33:49;;;;;;;4.10;3.30;;;;;;;;;;5094064;28;20036;-72
2022/01/18 13:36:16;;;;;;;9.05;3.80;;;;;;;;;;5094825;28;20043;-72
2022/01/18 13:38:42;;;;;;;20.95;13.15;;;;;;;;;;5094343;28;20507;-72
2022/01/18 13:41:08;;;;;;;5.32;3.60;;;;;;;;;;5094441;28;20052;-72
2022/01/18 13:43:35;;;;;;;9.48;4.90;;;;;;;;;;5094842;28;20035;-71
2022/01/18 13:46:01;;;;;;;9.38;6.50;;;;;;;;;;5093895;28;20040;-71
2022/01/18 13:48:33;;;;;;;11.13;5.93;;;;;;;;;;5094877;28;20519;-72
2022/01/18 13:51:08;;;;;;;7.25;4.50;;;;;;;;;;5094128;28;20513;-71
2022/01/18 13:53:35;;;;;;;8.38;5.38;;;;;;;;;;5093631;28;20036;-72
2022/01/18 13:56:01;;;;;;;25.65;15.80;;;;;;;;;;5094806;28;20035;-72
2022/01/18 13:58:33;;;;;;;11.05;6.55;;;;;;;;;;5092933;28;20040;-72
2022/01/18 14:01:08;;;;;;;4.88;3.20;;;;;;;;;;5108363;28;20413;-72
2022/01/18 14:03:36;;;;;;;5.93;3.63;;;;;;;;;;5093998;28;20031;-72
2022/01/18 14:06:02;;;;;;;10.02;6.47;;;;;;;;;;5093238;28;20070;-71
2022/01/18 14:08:34;;;;;;;5.38;3.85;;;;;;;;;;5094718;28;20048;-72
2022/01/18 14:11:04;;;;;;;7.47;4.20;;;;;;;;;;5094804;28;20134;-72
2022/01/18 14:13:35;;;;;;;16.98;10.98;;;;;;;;;;5109603;28;20394;-72
2022/01/18 14:16:01;;;;;;;;;;;;;;;;;;5091929;28;20516;-74
2022/01/18 14:18:28;;;;;;;8.35;4.90;;;;;;;;;;5084478;28;20422;-73
2022/01/18 14:20:54;;;;;;;19.20;10.63;;;;;;;;;;5071546;28;20037;-74
2022/01/18 14:23:21;;;;;;;8.88;5.38;;;;;;;;;;5072637;28;20040;-73
2022/01/18 14:25:48;;;;;;;18.08;10.32;;;;;;;;;;5073305;28;20076;-73
2022/01/18 14:28:16;;;;;;;9.60;6.85;;;;;;;;;;5073996;28;20037;-73
2022/01/18 14:30:43;;;;;;;10.50;6.75;;;;;;;;;;5073828;28;20476;-74
2022/01/18 14:33:13;;;;;;;12.93;8.13;;;;;;;;;;5073850;28;20117;-74
2022/01/18 14:35:43;;;;;;;14.90;9.07;;;;;;;;;;5074046;28;20048;-74
2022/01/18 14:38:13;;;;;;;15.80;8.65;;;;;;;;;;5074432;28;20066;-74
2022/01/18 14:40:44;;;;;;;13.20;7.43;;;;;;;;;;5074155;28;20033;-74
2022/01/18 14:43:14;;;;;;;12.65;7.45;;;;;;;;;;5074955;28;20036;-73
2022/01/18 14:46:02;;;;;;;9.93;6.45;;;;;;;;;;5077947;28;20039;-73
2022/01/18 14:48:30;;;;;;;11.05;6.05;;;;;;;;;;5078036;28;20043;-73
2022/01/18 14:50:56;;;;;;;11.25;5.72;;;;;;;;;;5078127;28;20029;-73
2022/01/18 14:53:24;;;;;;;7.80;5.47;;;;;;;;;;5078404;28;20040;-73
2022/01/18 14:55:50;;;;;;;9.38;5.60;;;;;;;;;;5078129;28;20033;-73
2022/01/18 14:58:17;;;;;;;11.27;6.25;;;;;;;;;;5078582;28;20040;-73
2022/01/18 15:00:44;;;;;;;7.32;4.70;;;;;;;;;;5076987;28;20068;-73
2022/01/18 15:03:10;;;;;;;8.13;4.82;;;;;;;;;;5076881;28;20052;-74
2022/01/18 15:05:36;;;;;;;6.88;4.57;;;;;;;;;;5077550;28;20040;-73
2022/01/18 15:08:04;;;;;;;7.68;5.57;;;;;;;;;;5077767;28;20123;-74
2022/01/18 15:10:31;;;;;;;9.57;6.30;;;;;;;;;;5077728;28;20151;-74
2022/01/18 15:12:57;;;;;;;14.55;8.70;;;;;;;;;;5093847;28;20036;-74
2022/01/18 15:15:24;;;;;;;14.90;7.25;;;;;;;;;;5093312;28;20052;-75
2022/01/18 15:17:50;;;;;;;13.98;7.95;;;;;;;;;;5096710;28;20028;-74
2022/01/18 15:20:17;;;;;;;13.30;7.38;;;;;;;;;;5097672;28;20047;-73
2022/01/18 15:22:44;;;;;;;28.48;14.75;;;;;;;;;;5097981;28;20032;-73
2022/01/18 15:25:11;;;;;;;13.20;6.80;;;;;;;;;;5096962;28;20036;-73
2022/01/18 15:27:37;;;;;;;16.05;9.93;;;;;;;;;;5095685;28;20031;-73
2022/01/18 15:30:08;;;;;;;14.73;10.50;;;;;;;;;;5097072;28;20040;-73
2022/01/18 15:32:34;;;;;;;16.63;10.55;;;;;;;;;;5097611;28;20035;-72
2022/01/18 15:35:00;;;;;;;25.30;15.88;;;;;;;;;;5096394;28;20386;-72
2022/01/18 15:37:26;;;;;;;16.00;10.18;;;;;;;;;;5097881;28;20036;-71
2022/01/18 15:39:54;;;;;;;14.10;8.90;;;;;;;;;;5097738;28;20099;-72
2022/01/18 15:42:21;;;;;;;15.32;9.88;;;;;;;;;;5086910;28;20479;-72
2022/01/18 15:44:47;;;;;;;19.02;11.65;;;;;;;;;;5065990;28;20043;-73
2022/01/18 15:47:14;;;;;;;13.52;8.05;;;;;;;;;;5056219;28;20504;-74
2022/01/18 15:49:41;;;;;;;15.50;8.00;;;;;;;;;;5071153;28;20033;-73
2022/01/18 15:52:08;;;;;;;19.60;11.27;;;;;;;;;;5056737;28;20037;-73
2022/01/18 15:54:35;;;;;;;23.50;9.05;;;;;;;;;;5055761;28;20029;-73